sensor_id;sensor_type;location;lat;lon;timestamp;P1;durP1;ratioP1;P2;durP2;ratioP2
6093;SDS011;19964;42.060;24.700;2024-03-29T00:01:01;13.27;;;3.40;;
6093;SDS011;19964;42.060;24.700;2024-03-29T00:03:27;9.70;;;3.10;;
6093;SDS011;19964;42.060;24.700;2024-03-29T00:05:53;10.63;;;3.23;;
6093;SDS011;19964;42.060;24.700;2024-03-29T00:08:19;13.20;;;3.53;;
6093;SDS011;19964;42.060;24.700;2024-03-29T00:10:46;12.17;;;3.23;;
6093;SDS011;19964;42.060;24.700;2024-03-29T00:13:12;9.33;;;3.20;;
6093;SDS011;19964;42.060;24.700;2024-03-29T00:15:38;10.53;;;3.23;;
6093;SDS011;19964;42.060;24.700;2024-03-29T00:18:05;11.50;;;3.00;;
6093;SDS011;19964;42.060;24.700;2024-03-29T00:20:32;12.07;;;3.33;;
6093;SDS011;19964;42.060;24.700;2024-03-29T00:22:57;9.30;;;2.97;;
6093;SDS011;19964;42.060;24.700;2024-03-29T00:25:23;5.80;;;2.97;;
6093;SDS011;19964;42.060;24.700;2024-03-29T00:27:49;8.97;;;3.00;;
6093;SDS011;19964;42.060;24.700;2024-03-29T00:30:15;12.83;;;3.73;;
6093;SDS011;19964;42.060;24.700;2024-03-29T00:32:41;12.57;;;3.47;;
6093;SDS011;19964;42.060;24.700;2024-03-29T00:35:09;7.33;;;3.60;;
6093;SDS011;19964;42.060;24.700;2024-03-29T00:37:34;11.07;;;3.10;;
6093;SDS011;19964;42.060;24.700;2024-03-29T00:40:00;15.17;;;2.73;;
6093;SDS011;19964;42.060;24.700;2024-03-29T00:42:26;14.83;;;2.63;;
6093;SDS011;19964;42.060;24.700;2024-03-29T00:44:52;9.03;;;2.60;;
6093;SDS011;19964;42.060;24.700;2024-03-29T00:47:18;21.90;;;3.43;;
6093;SDS011;19964;42.060;24.700;2024-03-29T00:49:44;9.10;;;2.73;;
6093;SDS011;19964;42.060;24.700;2024-03-29T00:52:11;13.60;;;3.17;;
6093;SDS011;19964;42.060;24.700;2024-03-29T00:54:37;12.80;;;3.57;;
6093;SDS011;19964;42.060;24.700;2024-03-29T00:57:03;14.10;;;3.20;;
6093;SDS011;19964;42.060;24.700;2024-03-29T00:59:30;9.43;;;3.17;;
6093;SDS011;19964;42.060;24.700;2024-03-29T01:01:56;10.63;;;2.93;;
6093;SDS011;19964;42.060;24.700;2024-03-29T01:04:22;11.90;;;2.93;;
6093;SDS011;19964;42.060;24.700;2024-03-29T01:06:48;10.30;;;2.80;;
6093;SDS011;19964;42.060;24.700;2024-03-29T01:09:15;9.00;;;2.90;;
6093;SDS011;19964;42.060;24.700;2024-03-29T01:11:41;9.27;;;2.97;;
6093;SDS011;19964;42.060;24.700;2024-03-29T01:14:07;9.87;;;3.27;;
6093;SDS011;19964;42.060;24.700;2024-03-29T01:16:33;5.70;;;2.57;;
6093;SDS011;19964;42.060;24.700;2024-03-29T01:18:59;9.07;;;2.93;;
6093;SDS011;19964;42.060;24.700;2024-03-29T01:21:25;9.07;;;3.07;;
6093;SDS011;19964;42.060;24.700;2024-03-29T01:23:51;12.27;;;2.70;;
6093;SDS011;19964;42.060;24.700;2024-03-29T01:26:18;9.83;;;2.80;;
6093;SDS011;19964;42.060;24.700;2024-03-29T01:28:45;5.33;;;2.63;;
6093;SDS011;19964;42.060;24.700;2024-03-29T01:31:11;12.10;;;3.27;;
6093;SDS011;19964;42.060;24.700;2024-03-29T01:33:37;6.23;;;2.40;;
6093;SDS011;19964;42.060;24.700;2024-03-29T01:36:03;8.60;;;2.93;;
6093;SDS011;19964;42.060;24.700;2024-03-29T01:38:29;12.47;;;2.93;;
6093;SDS011;19964;42.060;24.700;2024-03-29T01:40:55;8.33;;;2.90;;
6093;SDS011;19964;42.060;24.700;2024-03-29T01:43:23;7.90;;;3.00;;
6093;SDS011;19964;42.060;24.700;2024-03-29T01:45:50;9.10;;;2.87;;
6093;SDS011;19964;42.060;24.700;2024-03-29T01:48:20;10.10;;;3.23;;
6093;SDS011;19964;42.060;24.700;2024-03-29T01:50:49;9.67;;;3.20;;
6093;SDS011;19964;42.060;24.700;2024-03-29T01:53:18;7.47;;;2.73;;
6093;SDS011;19964;42.060;24.700;2024-03-29T01:55:45;7.60;;;2.70;;
6093;SDS011;19964;42.060;24.700;2024-03-29T01:58:13;13.83;;;2.70;;
6093;SDS011;19964;42.060;24.700;2024-03-29T02:00:44;7.20;;;2.97;;
6093;SDS011;19964;42.060;24.700;2024-03-29T02:03:17;8.67;;;2.60;;
6093;SDS011;19964;42.060;24.700;2024-03-29T02:05:44;7.67;;;2.47;;
6093;SDS011;19964;42.060;24.700;2024-03-29T02:08:12;7.03;;;2.63;;
6093;SDS011;19964;42.060;24.700;2024-03-29T02:10:40;7.23;;;2.33;;
6093;SDS011;19964;42.060;24.700;2024-03-29T02:13:07;10.00;;;2.57;;
6093;SDS011;19964;42.060;24.700;2024-03-29T02:15:34;10.20;;;2.77;;
6093;SDS011;19964;42.060;24.700;2024-03-29T02:18:02;6.70;;;2.40;;
6093;SDS011;19964;42.060;24.700;2024-03-29T02:20:30;6.70;;;2.27;;
6093;SDS011;19964;42.060;24.700;2024-03-29T02:23:00;7.60;;;2.50;;
6093;SDS011;19964;42.060;24.700;2024-03-29T02:25:36;5.57;;;2.43;;
6093;SDS011;19964;42.060;24.700;2024-03-29T02:28:04;5.57;;;2.50;;
6093;SDS011;19964;42.060;24.700;2024-03-29T02:30:31;7.07;;;2.40;;
6093;SDS011;19964;42.060;24.700;2024-03-29T02:32:58;8.63;;;2.40;;
6093;SDS011;19964;42.060;24.700;2024-03-29T02:35:26;8.70;;;2.53;;
6093;SDS011;19964;42.060;24.700;2024-03-29T02:37:53;4.17;;;2.03;;
6093;SDS011;19964;42.060;24.700;2024-03-29T02:40:20;4.70;;;2.50;;
6093;SDS011;19964;42.060;24.700;2024-03-29T02:42:48;7.50;;;2.60;;
6093;SDS011;19964;42.060;24.700;2024-03-29T02:45:16;8.43;;;2.60;;
6093;SDS011;19964;42.060;24.700;2024-03-29T02:47:43;9.53;;;2.20;;
6093;SDS011;19964;42.060;24.700;2024-03-29T02:50:12;4.10;;;2.10;;
6093;SDS011;19964;42.060;24.700;2024-03-29T02:52:38;8.30;;;2.30;;
6093;SDS011;19964;42.060;24.700;2024-03-29T02:55:06;8.70;;;2.50;;
6093;SDS011;19964;42.060;24.700;2024-03-29T02:57:32;6.70;;;2.40;;
6093;SDS011;19964;42.060;24.700;2024-03-29T03:00:00;3.57;;;1.87;;
6093;SDS011;19964;42.060;24.700;2024-03-29T03:02:26;4.00;;;2.10;;
6093;SDS011;19964;42.060;24.700;2024-03-29T03:04:53;4.90;;;2.20;;
6093;SDS011;19964;42.060;24.700;2024-03-29T03:07:19;4.13;;;1.80;;
6093;SDS011;19964;42.060;24.700;2024-03-29T03:10:04;4.77;;;1.93;;
6093;SDS011;19964;42.060;24.700;2024-03-29T03:12:48;8.43;;;2.30;;
6093;SDS011;19964;42.060;24.700;2024-03-29T03:15:17;5.43;;;2.27;;
6093;SDS011;19964;42.060;24.700;2024-03-29T03:17:44;7.47;;;2.50;;
6093;SDS011;19964;42.060;24.700;2024-03-29T03:20:11;4.60;;;2.20;;
6093;SDS011;19964;42.060;24.700;2024-03-29T03:22:38;4.37;;;2.07;;
6093;SDS011;19964;42.060;24.700;2024-03-29T03:25:06;4.00;;;2.10;;
6093;SDS011;19964;42.060;24.700;2024-03-29T03:27:32;4.27;;;2.27;;
6093;SDS011;19964;42.060;24.700;2024-03-29T03:29:59;3.37;;;2.03;;
6093;SDS011;19964;42.060;24.700;2024-03-29T03:32:26;4.20;;;1.77;;
6093;SDS011;19964;42.060;24.700;2024-03-29T03:34:53;6.93;;;2.30;;
6093;SDS011;19964;42.060;24.700;2024-03-29T03:37:19;4.23;;;2.27;;
6093;SDS011;19964;42.060;24.700;2024-03-29T03:39:46;3.47;;;2.00;;
6093;SDS011;19964;42.060;24.700;2024-03-29T03:42:13;5.30;;;2.50;;
6093;SDS011;19964;42.060;24.700;2024-03-29T03:44:40;4.50;;;1.90;;
6093;SDS011;19964;42.060;24.700;2024-03-29T03:47:06;4.33;;;2.30;;
6093;SDS011;19964;42.060;24.700;2024-03-29T03:49:34;3.80;;;2.10;;
6093;SDS011;19964;42.060;24.700;2024-03-29T03:52:00;4.60;;;1.80;;
6093;SDS011;19964;42.060;24.700;2024-03-29T03:54:27;4.10;;;2.00;;
6093;SDS011;19964;42.060;24.700;2024-03-29T03:56:54;4.93;;;1.90;;
6093;SDS011;19964;42.060;24.700;2024-03-29T03:59:21;6.90;;;2.00;;
6093;SDS011;19964;42.060;24.700;2024-03-29T04:01:47;5.30;;;2.10;;
6093;SDS011;19964;42.060;24.700;2024-03-29T04:04:16;9.70;;;2.00;;
6093;SDS011;19964;42.060;24.700;2024-03-29T04:06:44;4.90;;;1.80;;
6093;SDS011;19964;42.060;24.700;2024-03-29T04:09:11;3.57;;;2.00;;
6093;SDS011;19964;42.060;24.700;2024-03-29T04:11:39;6.23;;;2.20;;
6093;SDS011;19964;42.060;24.700;2024-03-29T04:14:06;4.50;;;1.73;;
6093;SDS011;19964;42.060;24.700;2024-03-29T04:16:32;4.40;;;1.97;;
6093;SDS011;19964;42.060;24.700;2024-03-29T04:18:59;3.67;;;2.13;;
6093;SDS011;19964;42.060;24.700;2024-03-29T04:21:25;3.57;;;2.30;;
6093;SDS011;19964;42.060;24.700;2024-03-29T04:23:53;8.63;;;2.10;;
6093;SDS011;19964;42.060;24.700;2024-03-29T04:26:19;3.07;;;1.87;;
6093;SDS011;19964;42.060;24.700;2024-03-29T04:28:46;3.37;;;1.70;;
6093;SDS011;19964;42.060;24.700;2024-03-29T04:31:12;2.37;;;1.90;;
6093;SDS011;19964;42.060;24.700;2024-03-29T04:33:39;5.00;;;1.83;;
6093;SDS011;19964;42.060;24.700;2024-03-29T04:36:05;3.83;;;1.90;;
6093;SDS011;19964;42.060;24.700;2024-03-29T04:38:32;2.90;;;1.77;;
6093;SDS011;19964;42.060;24.700;2024-03-29T04:41:01;6.37;;;2.00;;
6093;SDS011;19964;42.060;24.700;2024-03-29T04:43:28;3.67;;;1.50;;
6093;SDS011;19964;42.060;24.700;2024-03-29T04:46:01;3.83;;;2.17;;
6093;SDS011;19964;42.060;24.700;2024-03-29T04:48:30;2.37;;;1.50;;
6093;SDS011;19964;42.060;24.700;2024-03-29T04:50:57;3.83;;;1.93;;
6093;SDS011;19964;42.060;24.700;2024-03-29T04:53:24;3.00;;;1.63;;
6093;SDS011;19964;42.060;24.700;2024-03-29T04:55:55;3.67;;;1.70;;
6093;SDS011;19964;42.060;24.700;2024-03-29T04:58:22;3.53;;;1.57;;
6093;SDS011;19964;42.060;24.700;2024-03-29T05:00:49;3.23;;;1.47;;
6093;SDS011;19964;42.060;24.700;2024-03-29T05:03:17;2.67;;;1.80;;
6093;SDS011;19964;42.060;24.700;2024-03-29T05:05:44;4.30;;;1.67;;
6093;SDS011;19964;42.060;24.700;2024-03-29T05:08:12;6.40;;;1.50;;
6093;SDS011;19964;42.060;24.700;2024-03-29T05:10:39;3.10;;;1.60;;
6093;SDS011;19964;42.060;24.700;2024-03-29T05:13:06;4.87;;;1.50;;
6093;SDS011;19964;42.060;24.700;2024-03-29T05:15:35;3.73;;;1.30;;
6093;SDS011;19964;42.060;24.700;2024-03-29T05:18:02;1.37;;;1.27;;
6093;SDS011;19964;42.060;24.700;2024-03-29T05:20:29;3.17;;;1.50;;
6093;SDS011;19964;42.060;24.700;2024-03-29T05:22:57;4.37;;;1.63;;
6093;SDS011;19964;42.060;24.700;2024-03-29T05:25:24;3.93;;;1.43;;
6093;SDS011;19964;42.060;24.700;2024-03-29T05:27:51;3.37;;;1.50;;
6093;SDS011;19964;42.060;24.700;2024-03-29T05:30:18;4.27;;;1.53;;
6093;SDS011;19964;42.060;24.700;2024-03-29T05:32:47;2.23;;;1.40;;
6093;SDS011;19964;42.060;24.700;2024-03-29T05:35:14;4.37;;;1.10;;
6093;SDS011;19964;42.060;24.700;2024-03-29T05:37:41;1.97;;;1.20;;
6093;SDS011;19964;42.060;24.700;2024-03-29T05:40:12;1.60;;;1.40;;
6093;SDS011;19964;42.060;24.700;2024-03-29T05:42:39;2.17;;;1.23;;
6093;SDS011;19964;42.060;24.700;2024-03-29T05:45:20;2.50;;;1.13;;
6093;SDS011;19964;42.060;24.700;2024-03-29T05:47:51;2.67;;;1.50;;
6093;SDS011;19964;42.060;24.700;2024-03-29T05:50:18;2.00;;;1.40;;
6093;SDS011;19964;42.060;24.700;2024-03-29T05:52:45;2.37;;;1.40;;
6093;SDS011;19964;42.060;24.700;2024-03-29T05:55:12;1.60;;;1.20;;
6093;SDS011;19964;42.060;24.700;2024-03-29T05:57:39;4.00;;;1.37;;
6093;SDS011;19964;42.060;24.700;2024-03-29T06:00:10;4.47;;;1.30;;
6093;SDS011;19964;42.060;24.700;2024-03-29T06:02:39;2.43;;;1.40;;
6093;SDS011;19964;42.060;24.700;2024-03-29T06:05:09;8.40;;;1.70;;
6093;SDS011;19964;42.060;24.700;2024-03-29T06:07:37;5.03;;;1.20;;
6093;SDS011;19964;42.060;24.700;2024-03-29T06:10:04;4.15;;;1.20;;
6093;SDS011;19964;42.060;24.700;2024-03-29T06:12:34;1.65;;;1.42;;
6093;SDS011;19964;42.060;24.700;2024-03-29T06:15:03;3.85;;;1.40;;
6093;SDS011;19964;42.060;24.700;2024-03-29T06:17:48;1.85;;;1.05;;
6093;SDS011;19964;42.060;24.700;2024-03-29T06:20:17;1.92;;;1.40;;
6093;SDS011;19964;42.060;24.700;2024-03-29T06:22:44;3.30;;;1.30;;
6093;SDS011;19964;42.060;24.700;2024-03-29T06:25:11;1.30;;;1.20;;
6093;SDS011;19964;42.060;24.700;2024-03-29T06:27:38;2.33;;;1.00;;
6093;SDS011;19964;42.060;24.700;2024-03-29T06:30:06;3.05;;;0.98;;
6093;SDS011;19964;42.060;24.700;2024-03-29T06:32:34;2.33;;;1.05;;
6093;SDS011;19964;42.060;24.700;2024-03-29T06:35:01;2.03;;;1.30;;
6093;SDS011;19964;42.060;24.700;2024-03-29T06:37:29;6.32;;;1.13;;
6093;SDS011;19964;42.060;24.700;2024-03-29T06:39:56;3.70;;;1.48;;
6093;SDS011;19964;42.060;24.700;2024-03-29T06:42:23;1.30;;;0.88;;
6093;SDS011;19964;42.060;24.700;2024-03-29T06:44:50;4.25;;;1.23;;
6093;SDS011;19964;42.060;24.700;2024-03-29T06:47:17;3.10;;;1.10;;
6093;SDS011;19964;42.060;24.700;2024-03-29T06:49:44;2.10;;;1.25;;
6093;SDS011;19964;42.060;24.700;2024-03-29T06:52:12;2.50;;;1.20;;
6093;SDS011;19964;42.060;24.700;2024-03-29T06:54:40;1.80;;;1.02;;
6093;SDS011;19964;42.060;24.700;2024-03-29T06:57:07;2.83;;;1.25;;
6093;SDS011;19964;42.060;24.700;2024-03-29T06:59:37;1.17;;;1.00;;
6093;SDS011;19964;42.060;24.700;2024-03-29T07:02:04;1.38;;;1.17;;
6093;SDS011;19964;42.060;24.700;2024-03-29T07:04:32;1.45;;;1.00;;
6093;SDS011;19964;42.060;24.700;2024-03-29T07:06:59;3.70;;;1.20;;
6093;SDS011;19964;42.060;24.700;2024-03-29T07:09:26;1.05;;;0.93;;
6093;SDS011;19964;42.060;24.700;2024-03-29T07:11:54;2.65;;;0.98;;
6093;SDS011;19964;42.060;24.700;2024-03-29T07:14:22;5.78;;;1.00;;
6093;SDS011;19964;42.060;24.700;2024-03-29T07:16:51;3.45;;;1.20;;
6093;SDS011;19964;42.060;24.700;2024-03-29T07:19:19;1.40;;;1.08;;
6093;SDS011;19964;42.060;24.700;2024-03-29T07:21:47;1.77;;;1.20;;
6093;SDS011;19964;42.060;24.700;2024-03-29T07:24:18;1.85;;;1.00;;
6093;SDS011;19964;42.060;24.700;2024-03-29T07:26:45;2.70;;;0.90;;
6093;SDS011;19964;42.060;24.700;2024-03-29T07:29:13;2.25;;;0.90;;
6093;SDS011;19964;42.060;24.700;2024-03-29T07:31:40;2.25;;;1.10;;
6093;SDS011;19964;42.060;24.700;2024-03-29T07:34:07;1.08;;;0.98;;
6093;SDS011;19964;42.060;24.700;2024-03-29T07:36:35;1.70;;;1.00;;
6093;SDS011;19964;42.060;24.700;2024-03-29T07:39:02;2.70;;;1.15;;
6093;SDS011;19964;42.060;24.700;2024-03-29T07:41:31;4.32;;;1.20;;
6093;SDS011;19964;42.060;24.700;2024-03-29T07:43:58;4.30;;;1.00;;
6093;SDS011;19964;42.060;24.700;2024-03-29T07:46:28;1.60;;;1.10;;
6093;SDS011;19964;42.060;24.700;2024-03-29T07:48:59;1.42;;;0.90;;
6093;SDS011;19964;42.060;24.700;2024-03-29T07:51:26;3.00;;;0.90;;
6093;SDS011;19964;42.060;24.700;2024-03-29T07:53:53;2.45;;;0.90;;
6093;SDS011;19964;42.060;24.700;2024-03-29T07:56:20;2.28;;;0.90;;
6093;SDS011;19964;42.060;24.700;2024-03-29T07:58:49;1.75;;;1.00;;
6093;SDS011;19964;42.060;24.700;2024-03-29T08:01:18;0.90;;;0.90;;
6093;SDS011;19964;42.060;24.700;2024-03-29T08:03:49;1.33;;;0.80;;
6093;SDS011;19964;42.060;24.700;2024-03-29T08:06:18;2.42;;;1.10;;
6093;SDS011;19964;42.060;24.700;2024-03-29T08:08:45;4.00;;;1.05;;
6093;SDS011;19964;42.060;24.700;2024-03-29T08:11:12;3.10;;;1.00;;
6093;SDS011;19964;42.060;24.700;2024-03-29T08:13:39;3.45;;;0.68;;
6093;SDS011;19964;42.060;24.700;2024-03-29T08:16:07;1.33;;;1.00;;
6093;SDS011;19964;42.060;24.700;2024-03-29T08:18:34;3.60;;;1.08;;
6093;SDS011;19964;42.060;24.700;2024-03-29T08:21:02;1.08;;;0.85;;
6093;SDS011;19964;42.060;24.700;2024-03-29T08:23:35;2.03;;;1.00;;
6093;SDS011;19964;42.060;24.700;2024-03-29T08:26:04;3.58;;;0.98;;
6093;SDS011;19964;42.060;24.700;2024-03-29T08:28:30;2.15;;;1.10;;
6093;SDS011;19964;42.060;24.700;2024-03-29T08:30:58;3.00;;;1.10;;
6093;SDS011;19964;42.060;24.700;2024-03-29T08:33:25;2.67;;;1.00;;
6093;SDS011;19964;42.060;24.700;2024-03-29T08:35:52;2.53;;;0.90;;
6093;SDS011;19964;42.060;24.700;2024-03-29T08:38:21;1.83;;;1.13;;
6093;SDS011;19964;42.060;24.700;2024-03-29T08:40:48;2.10;;;1.10;;
6093;SDS011;19964;42.060;24.700;2024-03-29T08:43:15;2.72;;;0.82;;
6093;SDS011;19964;42.060;24.700;2024-03-29T08:45:43;1.08;;;1.00;;
6093;SDS011;19964;42.060;24.700;2024-03-29T08:48:10;2.35;;;0.90;;
6093;SDS011;19964;42.060;24.700;2024-03-29T08:50:37;2.95;;;1.13;;
6093;SDS011;19964;42.060;24.700;2024-03-29T08:53:04;1.35;;;1.02;;
6093;SDS011;19964;42.060;24.700;2024-03-29T08:55:33;1.67;;;1.10;;
6093;SDS011;19964;42.060;24.700;2024-03-29T08:58:01;1.48;;;0.90;;
6093;SDS011;19964;42.060;24.700;2024-03-29T09:00:29;1.77;;;0.95;;
6093;SDS011;19964;42.060;24.700;2024-03-29T09:02:57;1.23;;;1.02;;
6093;SDS011;19964;42.060;24.700;2024-03-29T09:05:24;1.73;;;1.10;;
6093;SDS011;19964;42.060;24.700;2024-03-29T09:07:54;1.23;;;0.68;;
6093;SDS011;19964;42.060;24.700;2024-03-29T09:10:21;1.25;;;1.00;;
6093;SDS011;19964;42.060;24.700;2024-03-29T09:12:51;3.42;;;1.23;;
6093;SDS011;19964;42.060;24.700;2024-03-29T09:15:18;7.28;;;1.15;;
6093;SDS011;19964;42.060;24.700;2024-03-29T09:17:45;0.88;;;0.88;;
6093;SDS011;19964;42.060;24.700;2024-03-29T09:20:12;2.20;;;1.00;;
6093;SDS011;19964;42.060;24.700;2024-03-29T09:22:39;1.95;;;0.88;;
6093;SDS011;19964;42.060;24.700;2024-03-29T09:25:07;2.53;;;0.95;;
6093;SDS011;19964;42.060;24.700;2024-03-29T09:27:38;1.90;;;0.93;;
6093;SDS011;19964;42.060;24.700;2024-03-29T09:30:10;4.13;;;1.33;;
6093;SDS011;19964;42.060;24.700;2024-03-29T09:32:38;2.08;;;0.95;;
6093;SDS011;19964;42.060;24.700;2024-03-29T09:35:05;3.78;;;1.13;;
6093;SDS011;19964;42.060;24.700;2024-03-29T09:37:32;2.13;;;1.05;;
6093;SDS011;19964;42.060;24.700;2024-03-29T09:40:01;3.45;;;1.10;;
6093;SDS011;19964;42.060;24.700;2024-03-29T09:42:31;2.95;;;1.13;;
6093;SDS011;19964;42.060;24.700;2024-03-29T09:44:59;3.50;;;1.13;;
6093;SDS011;19964;42.060;24.700;2024-03-29T09:47:29;1.33;;;0.93;;
6093;SDS011;19964;42.060;24.700;2024-03-29T09:49:58;2.28;;;1.02;;
6093;SDS011;19964;42.060;24.700;2024-03-29T09:52:29;4.30;;;1.20;;
6093;SDS011;19964;42.060;24.700;2024-03-29T09:54:56;3.88;;;1.33;;
6093;SDS011;19964;42.060;24.700;2024-03-29T09:57:24;1.98;;;0.95;;
6093;SDS011;19964;42.060;24.700;2024-03-29T09:59:54;3.05;;;1.27;;
6093;SDS011;19964;42.060;24.700;2024-03-29T10:02:22;2.38;;;1.23;;
6093;SDS011;19964;42.060;24.700;2024-03-29T10:04:55;5.82;;;1.20;;
6093;SDS011;19964;42.060;24.700;2024-03-29T10:07:23;2.75;;;1.40;;
6093;SDS011;19964;42.060;24.700;2024-03-29T10:09:51;2.13;;;1.05;;
6093;SDS011;19964;42.060;24.700;2024-03-29T10:12:20;2.38;;;1.30;;
6093;SDS011;19964;42.060;24.700;2024-03-29T10:14:47;1.08;;;1.00;;
6093;SDS011;19964;42.060;24.700;2024-03-29T10:17:17;3.35;;;1.20;;
6093;SDS011;19964;42.060;24.700;2024-03-29T10:19:45;1.77;;;1.10;;
6093;SDS011;19964;42.060;24.700;2024-03-29T10:22:13;3.20;;;1.40;;
6093;SDS011;19964;42.060;24.700;2024-03-29T10:24:41;3.80;;;1.20;;
6093;SDS011;19964;42.060;24.700;2024-03-29T10:27:08;2.45;;;1.00;;
6093;SDS011;19964;42.060;24.700;2024-03-29T10:29:35;2.50;;;1.58;;
6093;SDS011;19964;42.060;24.700;2024-03-29T10:32:02;1.73;;;1.33;;
6093;SDS011;19964;42.060;24.700;2024-03-29T10:34:29;3.08;;;1.13;;
6093;SDS011;19964;42.060;24.700;2024-03-29T10:37:00;1.25;;;1.10;;
6093;SDS011;19964;42.060;24.700;2024-03-29T10:39:30;2.83;;;1.20;;
6093;SDS011;19964;42.060;24.700;2024-03-29T10:41:59;1.88;;;1.08;;
6093;SDS011;19964;42.060;24.700;2024-03-29T10:44:26;3.03;;;0.95;;
6093;SDS011;19964;42.060;24.700;2024-03-29T10:46:56;3.70;;;1.30;;
6093;SDS011;19964;42.060;24.700;2024-03-29T10:49:24;3.38;;;1.20;;
6093;SDS011;19964;42.060;24.700;2024-03-29T10:51:51;2.55;;;1.20;;
6093;SDS011;19964;42.060;24.700;2024-03-29T10:54:22;4.30;;;1.33;;
6093;SDS011;19964;42.060;24.700;2024-03-29T10:56:53;3.05;;;0.93;;
6093;SDS011;19964;42.060;24.700;2024-03-29T10:59:27;2.50;;;1.20;;
6093;SDS011;19964;42.060;24.700;2024-03-29T11:02:05;2.20;;;1.13;;
6093;SDS011;19964;42.060;24.700;2024-03-29T11:04:39;2.97;;;0.93;;
6093;SDS011;19964;42.060;24.700;2024-03-29T11:07:10;1.95;;;1.17;;
6093;SDS011;19964;42.060;24.700;2024-03-29T11:09:41;3.08;;;1.23;;
6093;SDS011;19964;42.060;24.700;2024-03-29T11:12:12;3.72;;;1.17;;
6093;SDS011;19964;42.060;24.700;2024-03-29T11:14:42;2.85;;;0.93;;
6093;SDS011;19964;42.060;24.700;2024-03-29T11:17:12;1.05;;;0.90;;
6093;SDS011;19964;42.060;24.700;2024-03-29T11:19:39;0.88;;;0.85;;
6093;SDS011;19964;42.060;24.700;2024-03-29T11:22:07;3.25;;;1.33;;
6093;SDS011;19964;42.060;24.700;2024-03-29T11:24:35;2.45;;;1.50;;
6093;SDS011;19964;42.060;24.700;2024-03-29T11:27:09;3.28;;;1.20;;
6093;SDS011;19964;42.060;24.700;2024-03-29T11:29:37;2.97;;;1.10;;
6093;SDS011;19964;42.060;24.700;2024-03-29T11:32:10;3.00;;;1.25;;
6093;SDS011;19964;42.060;24.700;2024-03-29T11:34:43;3.53;;;1.20;;
6093;SDS011;19964;42.060;24.700;2024-03-29T11:37:11;1.58;;;1.00;;
6093;SDS011;19964;42.060;24.700;2024-03-29T11:39:38;2.70;;;1.27;;
6093;SDS011;19964;42.060;24.700;2024-03-29T11:42:06;3.22;;;1.50;;
6093;SDS011;19964;42.060;24.700;2024-03-29T11:44:34;4.25;;;1.42;;
6093;SDS011;19964;42.060;24.700;2024-03-29T11:47:02;1.30;;;1.20;;
6093;SDS011;19964;42.060;24.700;2024-03-29T11:49:33;1.33;;;0.90;;
6093;SDS011;19964;42.060;24.700;2024-03-29T11:52:03;2.60;;;1.30;;
6093;SDS011;19964;42.060;24.700;2024-03-29T11:54:37;4.15;;;0.98;;
6093;SDS011;19964;42.060;24.700;2024-03-29T11:57:05;1.10;;;0.90;;
6093;SDS011;19964;42.060;24.700;2024-03-29T11:59:32;2.95;;;1.20;;
6093;SDS011;19964;42.060;24.700;2024-03-29T12:01:59;1.75;;;1.05;;
6093;SDS011;19964;42.060;24.700;2024-03-29T12:04:28;1.55;;;0.90;;
6093;SDS011;19964;42.060;24.700;2024-03-29T12:06:55;3.90;;;1.10;;
6093;SDS011;19964;42.060;24.700;2024-03-29T12:09:22;2.42;;;1.17;;
6093;SDS011;19964;42.060;24.700;2024-03-29T12:11:49;1.00;;;0.90;;
6093;SDS011;19964;42.060;24.700;2024-03-29T12:14:16;2.55;;;1.20;;
6093;SDS011;19964;42.060;24.700;2024-03-29T12:16:43;2.50;;;1.30;;
6093;SDS011;19964;42.060;24.700;2024-03-29T12:19:21;1.15;;;1.00;;
6093;SDS011;19964;42.060;24.700;2024-03-29T12:21:51;1.70;;;1.30;;
6093;SDS011;19964;42.060;24.700;2024-03-29T12:24:18;1.65;;;1.30;;
6093;SDS011;19964;42.060;24.700;2024-03-29T12:26:47;1.85;;;1.10;;
6093;SDS011;19964;42.060;24.700;2024-03-29T12:29:14;4.45;;;1.30;;
6093;SDS011;19964;42.060;24.700;2024-03-29T12:31:42;2.45;;;1.17;;
6093;SDS011;19964;42.060;24.700;2024-03-29T12:34:09;3.20;;;1.38;;
6093;SDS011;19964;42.060;24.700;2024-03-29T12:36:36;3.38;;;1.23;;
6093;SDS011;19964;42.060;24.700;2024-03-29T12:39:04;3.83;;;1.10;;
6093;SDS011;19964;42.060;24.700;2024-03-29T12:41:31;2.30;;;1.40;;
6093;SDS011;19964;42.060;24.700;2024-03-29T12:44:00;4.15;;;1.27;;
6093;SDS011;19964;42.060;24.700;2024-03-29T12:46:28;1.60;;;1.17;;
6093;SDS011;19964;42.060;24.700;2024-03-29T12:48:58;4.88;;;1.35;;
6093;SDS011;19964;42.060;24.700;2024-03-29T12:51:26;1.52;;;1.10;;
6093;SDS011;19964;42.060;24.700;2024-03-29T12:53:54;6.93;;;1.20;;
6093;SDS011;19964;42.060;24.700;2024-03-29T12:56:27;2.13;;;1.30;;
6093;SDS011;19964;42.060;24.700;2024-03-29T12:58:54;3.15;;;1.50;;
6093;SDS011;19964;42.060;24.700;2024-03-29T13:01:21;4.38;;;1.65;;
6093;SDS011;19964;42.060;24.700;2024-03-29T13:03:47;3.20;;;1.50;;
6093;SDS011;19964;42.060;24.700;2024-03-29T13:06:14;3.78;;;1.52;;
6093;SDS011;19964;42.060;24.700;2024-03-29T13:08:40;4.85;;;1.30;;
6093;SDS011;19964;42.060;24.700;2024-03-29T13:11:07;3.95;;;1.30;;
6093;SDS011;19964;42.060;24.700;2024-03-29T13:13:37;7.43;;;1.80;;
6093;SDS011;19964;42.060;24.700;2024-03-29T13:16:04;4.18;;;1.65;;
6093;SDS011;19964;42.060;24.700;2024-03-29T13:18:31;5.07;;;1.58;;
6093;SDS011;19964;42.060;24.700;2024-03-29T13:20:59;3.30;;;1.70;;
6093;SDS011;19964;42.060;24.700;2024-03-29T13:23:27;5.72;;;1.60;;
6093;SDS011;19964;42.060;24.700;2024-03-29T13:25:54;3.17;;;1.52;;
6093;SDS011;19964;42.060;24.700;2024-03-29T13:28:22;5.03;;;1.77;;
6093;SDS011;19964;42.060;24.700;2024-03-29T13:30:51;4.30;;;1.80;;
6093;SDS011;19964;42.060;24.700;2024-03-29T13:33:18;2.97;;;1.30;;
6093;SDS011;19964;42.060;24.700;2024-03-29T13:35:45;8.20;;;2.20;;
6093;SDS011;19964;42.060;24.700;2024-03-29T13:38:12;1.65;;;1.20;;
6093;SDS011;19964;42.060;24.700;2024-03-29T13:40:39;2.28;;;1.20;;
6093;SDS011;19964;42.060;24.700;2024-03-29T13:43:06;3.22;;;1.27;;
6093;SDS011;19964;42.060;24.700;2024-03-29T13:45:33;3.35;;;1.40;;
6093;SDS011;19964;42.060;24.700;2024-03-29T13:48:02;3.60;;;1.52;;
6093;SDS011;19964;42.060;24.700;2024-03-29T13:50:29;4.53;;;1.38;;
6093;SDS011;19964;42.060;24.700;2024-03-29T13:52:56;3.20;;;1.23;;
6093;SDS011;19964;42.060;24.700;2024-03-29T13:55:23;1.83;;;1.20;;
6093;SDS011;19964;42.060;24.700;2024-03-29T13:57:52;3.10;;;1.50;;
6093;SDS011;19964;42.060;24.700;2024-03-29T14:00:20;4.20;;;1.23;;
6093;SDS011;19964;42.060;24.700;2024-03-29T14:02:47;1.80;;;1.27;;
6093;SDS011;19964;42.060;24.700;2024-03-29T14:05:15;2.08;;;1.50;;
6093;SDS011;19964;42.060;24.700;2024-03-29T14:07:42;1.35;;;1.20;;
6093;SDS011;19964;42.060;24.700;2024-03-29T14:10:10;4.25;;;1.13;;
6093;SDS011;19964;42.060;24.700;2024-03-29T14:12:37;1.73;;;1.33;;
6093;SDS011;19964;42.060;24.700;2024-03-29T14:15:04;3.40;;;1.52;;
6093;SDS011;19964;42.060;24.700;2024-03-29T14:17:32;3.83;;;1.60;;
6093;SDS011;19964;42.060;24.700;2024-03-29T14:19:59;2.28;;;1.80;;
6093;SDS011;19964;42.060;24.700;2024-03-29T14:22:27;3.30;;;2.58;;
6093;SDS011;19964;42.060;24.700;2024-03-29T14:24:56;3.50;;;3.15;;
6093;SDS011;19964;42.060;24.700;2024-03-29T14:27:23;6.07;;;3.60;;
6093;SDS011;19964;42.060;24.700;2024-03-29T14:29:50;5.70;;;3.40;;
6093;SDS011;19964;42.060;24.700;2024-03-29T14:32:17;5.03;;;3.13;;
6093;SDS011;19964;42.060;24.700;2024-03-29T14:34:45;4.90;;;3.67;;
6093;SDS011;19964;42.060;24.700;2024-03-29T14:37:12;6.80;;;3.55;;
6093;SDS011;19964;42.060;24.700;2024-03-29T14:42:10;5.75;;;3.13;;
6093;SDS011;19964;42.060;24.700;2024-03-29T14:44:42;5.03;;;3.08;;
6093;SDS011;19964;42.060;24.700;2024-03-29T14:47:09;5.20;;;2.60;;
6093;SDS011;19964;42.060;24.700;2024-03-29T14:49:36;2.58;;;2.38;;
6093;SDS011;19964;42.060;24.700;2024-03-29T14:52:03;2.72;;;2.08;;